Nippon Maru — 3FDA7 — position and weather

sailwx.info

Track history (hours):
 
Tides and Currents Weather Stations Pressure Air Temp Water Temp Dewpoint Dewpoint Depression Visibility Wind Speed Wind Dir Waves Ship Positions

Nippon Maru

Last reported at 2014-Oct-11 17:23 UTC. Time now 2014-Oct-31 13:45 UTC.
Position N 08°57' E 122°46'.
Warning: this ship's position is 19 days out of date.

Length 190 m; draft 11.9 m.

Type: Cargo ship. MMSI: 353814000.

Date/timePositionNaut miles runAvg speedWind from/ knotsBaromVisibWave heightAir tempDewpointWater temp
2014-Oct-11 17:23N 08°57' E 122°46'34 0.8
2014-Oct-10 01:11N 09°06' E 122°13'3 4.0
2014-Oct-10 00:32N 09°06' E 122°15'3 2.4
2014-Oct-09 23:29N 09°05' E 122°14'37 4.7
2014-Oct-09 15:29N 08°57' E 122°51'1010.6
2014-Oct-09 14:33N 08°56' E 123°00'1010.1
2014-Oct-09 13:33N 08°57' E 123°11'1010.2
2014-Oct-09 12:33N 08°58' E 123°21'1010.1
2014-Oct-09 11:33N 08°60' E 123°31'1010.0
2014-Oct-09 10:33N 09°02' E 123°41'1110.9
2014-Oct-09 09:32N 09°06' E 123°51'1211.5
2014-Oct-09 08:32N 09°10' E 124°02'1111.2
2014-Oct-09 07:33N 09°14' E 124°13'1211.4
2014-Oct-09 06:32N 09°17' E 124°24'  
Track history (hours):
 
Tides and Currents Weather Stations Pressure Air Temp Water Temp Dewpoint Dewpoint Depression Visibility Wind Speed Wind Dir Waves Ship Positions

Nippon Maru

Last reported at 2014-Oct-11 17:23 UTC. Time now 2014-Oct-31 13:45 UTC.
Position N 08°57' E 122°46'.
Warning: this ship's position is 19 days out of date.

Length 190 m; draft 11.9 m.

Type: Cargo ship. MMSI: 353814000.

Date/timePositionNaut miles runAvg speedWind from/ knotsBaromVisibWave heightAir tempDewpointWater temp
2014-Oct-11 17:23N 08°57' E 122°46'34 0.8
2014-Oct-10 01:11N 09°06' E 122°13'3 4.0
2014-Oct-10 00:32N 09°06' E 122°15'3 2.4
2014-Oct-09 23:29N 09°05' E 122°14'37 4.7
2014-Oct-09 15:29N 08°57' E 122°51'1010.6
2014-Oct-09 14:33N 08°56' E 123°00'1010.1
2014-Oct-09 13:33N 08°57' E 123°11'1010.2
2014-Oct-09 12:33N 08°58' E 123°21'1010.1
2014-Oct-09 11:33N 08°60' E 123°31'1010.0
2014-Oct-09 10:33N 09°02' E 123°41'1110.9
2014-Oct-09 09:32N 09°06' E 123°51'1211.5
2014-Oct-09 08:32N 09°10' E 124°02'1111.2
2014-Oct-09 07:33N 09°14' E 124°13'1211.4
2014-Oct-09 06:32N 09°17' E 124°24'  

Dump ship's entire track history